Time;durP1;ratioP1;P1;durP2;ratioP2;P2;SDS_P1;SDS_P2;PMS_P1;PMS_P2;Temp;Humidity;BMP_temperature;BMP_pressure;BME280_temperature;BME280_humidity;BME280_pressure;Samples;Min_cycle;Max_cycle;Signal;HPM_P1;HPM_P2
2023/09/27 00:02:20;;;;;;;4.97;2.60;;;;;;;13.23;100.00;96727.03;5078737;28;20205;-68
2023/09/27 00:04:46;;;;;;;5.27;3.13;;;;;;;13.01;100.00;96727.91;5089191;28;20805;-68
2023/09/27 00:07:13;;;;;;;4.37;3.30;;;;;;;12.87;100.00;96734.00;5091633;28;20203;-70
2023/09/27 00:09:39;;;;;;;5.87;3.03;;;;;;;12.82;100.00;96731.84;5078363;28;20196;-68
2023/09/27 00:12:08;;;;;;;5.07;3.20;;;;;;;12.98;100.00;96741.50;5091642;28;20266;-68
2023/09/27 00:14:35;;;;;;;4.80;2.80;;;;;;;12.76;100.00;96737.84;5072301;28;20269;-71
2023/09/27 00:17:03;;;;;;;7.07;2.87;;;;;;;12.61;100.00;96732.69;5074531;28;20227;-68
2023/09/27 00:19:30;;;;;;;4.17;2.77;;;;;;;12.52;100.00;96729.28;5091466;28;20653;-69
2023/09/27 00:21:57;;;;;;;4.90;2.90;;;;;;;12.51;100.00;96727.66;5085339;28;20312;-68
2023/09/27 00:24:23;;;;;;;4.55;2.40;;;;;;;12.44;100.00;96723.25;5084265;28;20203;-69
2023/09/27 00:26:50;;;;;;;3.50;2.40;;;;;;;12.37;100.00;96715.22;5081973;28;20207;-68
2023/09/27 00:29:17;;;;;;;4.47;2.63;;;;;;;12.56;100.00;96711.25;5079500;28;20284;-68
2023/09/27 00:31:44;;;;;;;4.60;2.80;;;;;;;12.39;100.00;96713.19;5089297;28;20315;-67
2023/09/27 00:34:10;;;;;;;5.40;2.90;;;;;;;12.29;100.00;96715.25;5091510;28;20230;-68
2023/09/27 00:36:37;;;;;;;5.17;2.80;;;;;;;12.25;100.00;96715.78;5081616;28;20675;-68
2023/09/27 00:39:04;;;;;;;4.07;2.70;;;;;;;12.24;100.00;96720.25;5073435;28;20196;-69
2023/09/27 00:41:30;;;;;;;4.33;2.70;;;;;;;12.16;100.00;96721.31;5067242;28;20249;-68
2023/09/27 00:43:57;;;;;;;4.27;2.60;;;;;;;12.17;100.00;96723.78;5074863;28;20199;-68
2023/09/27 00:46:25;;;;;;;4.40;2.60;;;;;;;12.19;100.00;96735.81;5074629;28;20200;-68
2023/09/27 00:48:51;;;;;;;4.87;3.07;;;;;;;11.96;100.00;96739.41;5074991;28;20201;-67
2023/09/27 00:51:18;;;;;;;5.50;3.40;;;;;;;11.98;100.00;96728.69;5074705;28;20223;-68
2023/09/27 00:53:47;;;;;;;5.10;3.17;;;;;;;11.98;100.00;96728.69;5086606;28;20210;-68
2023/09/27 00:56:14;;;;;;;4.53;2.77;;;;;;;12.04;100.00;96725.31;5089944;28;20203;-71
2023/09/27 00:58:41;;;;;;;15.63;3.47;;;;;;;12.00;100.00;96726.69;5083881;28;20206;-68
2023/09/27 01:01:07;;;;;;;6.13;3.73;;;;;;;12.06;100.00;96715.41;5094750;28;20216;-68
2023/09/27 01:03:35;;;;;;;4.43;2.43;;;;;;;12.15;100.00;96719.66;5094803;28;20200;-70
2023/09/27 01:06:03;;;;;;;4.60;2.80;;;;;;;12.25;100.00;96718.44;5094966;28;20230;-68
2023/09/27 01:08:29;;;;;;;4.53;2.90;;;;;;;12.12;100.00;96712.06;5094866;28;20208;-70
2023/09/27 01:10:56;;;;;;;3.30;2.47;;;;;;;12.15;100.00;96719.66;5093423;28;20220;-67
2023/09/27 01:13:22;;;;;;;3.47;2.80;;;;;;;12.15;100.00;96706.44;5081713;28;20690;-69
2023/09/27 01:15:49;;;;;;;5.47;3.23;;;;;;;12.07;100.00;96709.97;5074649;28;20219;-69
2023/09/27 01:18:16;;;;;;;4.37;2.90;;;;;;;12.05;100.00;96706.66;5083361;28;20188;-68
2023/09/27 01:20:44;;;;;;;4.03;2.90;;;;;;;12.05;100.00;96703.19;5090557;28;20224;-69
2023/09/27 01:23:12;;;;;;;4.13;2.63;;;;;;;12.06;100.00;96710.13;5073917;28;20304;-69
2023/09/27 01:25:40;;;;;;;3.83;2.53;;;;;;;11.95;100.00;96714.00;5083093;28;20200;-70
2023/09/27 01:28:08;;;;;;;3.47;2.40;;;;;;;12.00;100.00;96716.91;5091545;28;20669;-68
2023/09/27 01:30:35;;;;;;;3.90;2.70;;;;;;;11.83;100.00;96709.28;5074053;28;20229;-70
2023/09/27 01:33:04;;;;;;;3.83;2.47;;;;;;;11.96;100.00;96709.53;5094114;28;20579;-68
2023/09/27 01:35:31;;;;;;;4.37;2.53;;;;;;;11.90;100.00;96712.84;5091696;28;20719;-69
2023/09/27 01:37:57;;;;;;;5.10;2.60;;;;;;;11.94;100.00;96711.50;5077971;28;20210;-67
2023/09/27 01:40:29;;;;;;;3.77;2.57;;;;;;;11.90;100.00;96716.34;5075784;28;20220;-67
2023/09/27 01:42:56;;;;;;;4.70;2.70;;;;;;;11.86;100.00;96722.13;5081755;28;20233;-68
2023/09/27 01:45:23;;;;;;;5.60;2.70;;;;;;;11.99;100.00;96710.00;5092681;28;20874;-68
2023/09/27 01:47:49;;;;;;;3.07;2.23;;;;;;;11.72;100.00;96718.41;5081662;28;20204;-68
2023/09/27 01:50:18;;;;;;;4.13;2.50;;;;;;;11.42;100.00;96710.41;5080843;28;20719;-70
2023/09/27 01:52:45;;;;;;;4.27;2.67;;;;;;;11.47;100.00;96701.97;5092456;28;20298;-68
2023/09/27 01:55:11;;;;;;;3.90;2.77;;;;;;;11.46;100.00;96695.88;5073725;28;20232;-70
2023/09/27 01:57:39;;;;;;;4.93;2.53;;;;;;;11.67;100.00;96704.06;5085914;28;20288;-68
2023/09/27 02:00:11;;;;;;;4.23;2.83;;;;;;;11.74;100.00;96707.69;5089078;28;20228;-68
2023/09/27 02:02:38;;;;;;;5.67;3.00;;;;;;;11.45;100.00;96714.53;5093833;28;20206;-70
2023/09/27 02:05:05;;;;;;;5.40;3.13;;;;;;;11.43;100.00;96712.06;5093145;28;20650;-68
2023/09/27 02:07:31;;;;;;;4.53;3.13;;;;;;;11.46;100.00;96710.91;5093407;28;20210;-70
2023/09/27 02:09:58;;;;;;;5.40;2.67;;;;;;;11.30;100.00;96724.16;5079167;28;20199;-68
2023/09/27 02:12:24;;;;;;;4.33;2.77;;;;;;;11.20;100.00;96726.97;5073317;28;20201;-70
2023/09/27 02:14:52;;;;;;;5.17;3.00;;;;;;;11.43;100.00;96727.91;5072862;28;20231;-68
2023/09/27 02:17:19;;;;;;;5.07;3.17;;;;;;;11.25;100.00;96719.38;5053195;28;20211;-68
2023/09/27 02:19:45;;;;;;;5.43;3.00;;;;;;;11.20;100.00;96723.50;5053053;28;20288;-70
2023/09/27 02:22:13;;;;;;;5.47;3.37;;;;;;;11.18;100.00;96741.34;5071938;28;20738;-71
2023/09/27 02:24:40;;;;;;;5.50;2.97;;;;;;;11.29;100.00;96738.31;5072836;28;20231;-73
2023/09/27 02:27:06;;;;;;;4.63;2.77;;;;;;;11.43;100.00;96738.47;5083144;28;20291;-71
2023/09/27 02:29:33;;;;;;;4.93;2.67;;;;;;;11.45;100.00;96736.47;5093163;28;20620;-70
2023/09/27 02:32:01;;;;;;;4.17;2.43;;;;;;;11.55;100.00;96738.94;5083175;28;20701;-72
2023/09/27 02:34:29;;;;;;;5.10;2.97;;;;;;;11.56;100.00;96730.84;5072350;28;20687;-72
2023/09/27 02:36:55;;;;;;;3.93;2.63;;;;;;;11.43;100.00;96733.19;5072459;28;20207;-70
2023/09/27 02:39:22;;;;;;;4.73;2.23;;;;;;;11.54;100.00;96730.19;5072289;28;20659;-73
2023/09/27 02:41:48;;;;;;;6.83;3.40;;;;;;;11.49;100.00;96727.19;5072302;28;20698;-71
2023/09/27 02:44:15;;;;;;;5.30;3.30;;;;;;;11.55;100.00;96716.00;5072644;28;20555;-68
2023/09/27 02:46:42;;;;;;;3.40;2.53;;;;;;;11.63;100.00;96718.59;5078193;28;20200;-68
2023/09/27 02:49:10;;;;;;;5.23;2.83;;;;;;;11.76;100.00;96725.00;5092413;28;20206;-69
2023/09/27 02:51:37;;;;;;;3.97;2.80;;;;;;;11.47;100.00;96738.91;5092697;28;20220;-70
2023/09/27 02:54:04;;;;;;;4.50;2.70;;;;;;;11.44;100.00;96745.38;5091307;28;20571;-68
2023/09/27 02:56:30;;;;;;;5.00;3.20;;;;;;;11.48;100.00;96735.28;5072451;28;20220;-70
2023/09/27 02:58:57;;;;;;;4.87;2.87;;;;;;;11.41;100.00;96748.34;5072205;28;20572;-68
2023/09/27 03:01:24;;;;;;;6.03;3.40;;;;;;;11.44;100.00;96745.38;5071514;28;20230;-67
2023/09/27 03:03:51;;;;;;;5.47;3.50;;;;;;;11.41;100.00;96745.72;5072340;28;20197;-70
2023/09/27 03:06:19;;;;;;;6.57;3.43;;;;;;;11.45;100.00;96736.47;5072003;28;20295;-68
2023/09/27 03:08:46;;;;;;;7.30;3.07;;;;;;;11.53;100.00;96743.56;5088029;28;20204;-68
2023/09/27 03:11:13;;;;;;;5.77;3.43;;;;;;;11.55;100.00;96737.94;5092504;28;20589;-68
2023/09/27 03:13:41;;;;;;;7.80;3.57;;;;;;;11.62;100.00;96746.00;5092550;28;20298;-68
2023/09/27 03:16:07;;;;;;;5.17;3.40;;;;;;;11.55;100.00;96731.03;5090625;28;20219;-68
2023/09/27 03:18:34;;;;;;;7.87;3.27;;;;;;;11.52;100.00;96737.47;5091328;28;20298;-68
2023/09/27 03:21:00;;;;;;;7.77;3.20;;;;;;;11.80;100.00;96749.22;5082872;28;20222;-68
2023/09/27 03:23:29;;;;;;;6.70;3.63;;;;;;;11.76;100.00;96746.13;5092072;28;20673;-71
2023/09/27 03:25:56;;;;;;;8.10;3.57;;;;;;;11.54;100.00;96758.41;5092412;28;20202;-68
2023/09/27 03:28:23;;;;;;;6.10;3.50;;;;;;;11.55;100.00;96753.75;5092332;28;20196;-67
2023/09/27 03:30:50;;;;;;;6.27;3.63;;;;;;;11.62;100.00;96757.38;5092193;28;20219;-68
2023/09/27 03:33:17;;;;;;;6.10;3.60;;;;;;;11.64;100.00;96751.94;5092316;28;20200;-68
2023/09/27 03:35:44;;;;;;;5.80;3.43;;;;;;;11.70;100.00;96746.78;5091913;28;20693;-68
2023/09/27 03:38:11;;;;;;;7.97;3.80;;;;;;;11.54;100.00;96743.38;5089937;28;20294;-68
2023/09/27 03:40:40;;;;;;;5.97;3.30;;;;;;;11.64;100.00;96736.09;5071676;28;20270;-70
2023/09/27 03:43:07;;;;;;;5.93;3.20;;;;;;;11.59;100.00;96733.13;5084360;28;20206;-68
2023/09/27 03:45:35;;;;;;;6.07;3.10;;;;;;;11.72;100.00;96739.53;5092149;28;20203;-71
2023/09/27 03:48:02;;;;;;;5.33;3.10;;;;;;;11.61;100.00;96739.09;5076014;28;20211;-68
2023/09/27 03:50:29;;;;;;;7.83;3.70;;;;;;;11.53;100.00;96740.91;5071732;28;20212;-68
2023/09/27 03:52:57;;;;;;;5.93;3.53;;;;;;;11.63;100.00;96742.38;5071511;28;20822;-68
2023/09/27 03:55:23;;;;;;;8.53;3.90;;;;;;;11.36;100.00;96747.22;5076468;28;20254;-68
2023/09/27 03:57:52;;;;;;;5.97;3.60;;;;;;;11.57;100.00;96740.44;5080190;28;20204;-70
2023/09/27 04:00:19;;;;;;;6.27;3.43;;;;;;;11.52;100.00;96740.13;5091234;28;20224;-68
2023/09/27 04:02:46;;;;;;;8.43;3.50;;;;;;;11.42;100.00;96744.72;5088465;28;20208;-68
2023/09/27 04:05:14;;;;;;;6.20;3.67;;;;;;;11.52;100.00;96740.13;5089656;28;20200;-68
2023/09/27 04:07:41;;;;;;;7.53;4.00;;;;;;;11.50;100.00;96736.81;5071677;28;20568;-68
2023/09/27 04:10:09;;;;;;;5.93;2.97;;;;;;;11.53;100.00;96738.28;5081254;28;20223;-67
2023/09/27 04:12:36;;;;;;;7.30;4.03;;;;;;;11.30;100.00;96734.69;5090738;28;20200;-68
2023/09/27 04:15:08;;;;;;;6.13;3.37;;;;;;;11.35;100.00;96727.91;5095336;28;20215;-68
2023/09/27 04:17:35;;;;;;;6.77;3.17;;;;;;;11.15;100.00;96724.03;5094609;28;20294;-69
2023/09/27 04:20:08;;;;;;;5.13;3.13;;;;;;;11.34;100.00;96723.66;5095368;28;20204;-70
2023/09/27 04:22:34;;;;;;;5.90;3.60;;;;;;;11.41;100.00;96714.03;5094841;28;20220;-70
2023/09/27 04:25:01;;;;;;;5.53;3.03;;;;;;;11.33;100.00;96729.91;5080262;28;20685;-68
2023/09/27 04:27:28;;;;;;;5.43;3.07;;;;;;;11.33;100.00;96726.44;5089508;28;20619;-67
2023/09/27 04:29:55;;;;;;;6.37;3.47;;;;;;;11.34;100.00;96725.44;5095088;28;20250;-68
2023/09/27 04:32:25;;;;;;;5.37;3.37;;;;;;;11.42;100.00;96733.31;5095227;28;20286;-68
2023/09/27 04:34:51;;;;;;;6.27;3.17;;;;;;;10.99;100.00;96731.97;5095336;28;20200;-68
2023/09/27 04:37:18;;;;;;;6.07;3.50;;;;;;;10.99;100.00;96739.06;5095189;28;20226;-68
2023/09/27 04:39:44;;;;;;;3.67;2.70;;;;;;;10.98;100.00;96738.25;5094966;28;20670;-69
2023/09/27 04:42:11;;;;;;;10.93;2.83;;;;;;;11.05;100.00;96741.84;5084010;28;20211;-68
2023/09/27 04:44:39;;;;;;;4.37;2.63;;;;;;;11.08;100.00;96745.97;5055217;28;20730;-68
2023/09/27 04:47:06;;;;;;;4.63;2.80;;;;;;;10.92;100.00;96737.25;5074401;28;20207;-67
2023/09/27 04:49:33;;;;;;;4.97;2.90;;;;;;;11.12;100.00;96745.44;5094851;28;20206;-67
2023/09/27 04:52:00;;;;;;;7.70;2.60;;;;;;;11.03;100.00;96746.44;5086629;28;20600;-68
2023/09/27 04:54:27;;;;;;;6.93;3.47;;;;;;;11.09;100.00;96745.78;5089268;28;20575;-70
2023/09/27 04:56:53;;;;;;;5.07;2.80;;;;;;;11.10;100.00;96744.81;5094747;28;20224;-68
2023/09/27 04:59:20;;;;;;;4.43;2.83;;;;;;;11.02;100.00;96738.72;5094568;28;20214;-68
2023/09/27 05:01:46;;;;;;;4.63;2.77;;;;;;;10.93;100.00;96737.91;5093435;28;20223;-68
2023/09/27 05:04:13;;;;;;;9.83;2.93;;;;;;;11.00;100.00;96730.97;5076250;28;20212;-71
2023/09/27 05:06:40;;;;;;;3.87;2.33;;;;;;;11.20;100.00;96739.34;5094906;28;20202;-68
2023/09/27 05:09:08;;;;;;;4.23;2.87;;;;;;;10.95;100.00;96746.47;5094775;28;20204;-70
2023/09/27 05:11:34;;;;;;;4.60;2.70;;;;;;;10.99;100.00;96754.88;5094531;28;20822;-68
2023/09/27 05:14:02;;;;;;;3.60;2.43;;;;;;;11.00;100.00;96752.06;5094746;28;20210;-68
2023/09/27 05:16:29;;;;;;;4.50;2.63;;;;;;;11.02;100.00;96755.38;5094656;28;20258;-68
2023/09/27 05:18:55;;;;;;;4.50;2.80;;;;;;;11.07;100.00;96752.22;5094576;28;20196;-69
2023/09/27 05:21:22;;;;;;;4.37;2.80;;;;;;;11.06;100.00;96756.69;5094590;28;20578;-69
2023/09/27 05:23:50;;;;;;;5.30;3.10;;;;;;;11.13;100.00;96752.38;5093758;28;20302;-68
2023/09/27 05:26:16;;;;;;;5.30;3.30;;;;;;;10.93;100.00;96761.66;5094463;28;20191;-68
2023/09/27 05:28:43;;;;;;;8.57;3.73;;;;;;;11.03;100.00;96772.81;5094147;28;20676;-68
2023/09/27 05:31:10;;;;;;;5.33;3.50;;;;;;;11.15;100.00;96778.56;5094222;28;20611;-69
2023/09/27 05:33:37;;;;;;;6.23;3.30;;;;;;;11.10;100.00;96788.84;5094121;28;20669;-68
2023/09/27 05:36:03;;;;;;;4.27;2.90;;;;;;;11.04;100.00;96798.22;5094220;28;20310;-68
2023/09/27 05:38:30;;;;;;;4.73;2.77;;;;;;;10.97;100.00;96807.78;5090113;28;20201;-69
2023/09/27 05:40:58;;;;;;;4.00;2.53;;;;;;;10.86;100.00;96817.84;5092646;28;20231;-68
2023/09/27 05:43:25;;;;;;;5.80;3.30;;;;;;;10.86;100.00;96817.84;5094254;28;20200;-68
2023/09/27 05:45:52;;;;;;;5.00;3.00;;;;;;;11.10;100.00;96816.03;5094135;28;20202;-68
2023/09/27 05:48:18;;;;;;;5.10;3.10;;;;;;;11.27;100.00;96804.44;5094188;28;20206;-68
2023/09/27 05:50:47;;;;;;;4.53;2.70;;;;;;;11.55;100.00;96797.81;5081626;28;20224;-68
2023/09/27 05:53:16;;;;;;;6.03;3.23;;;;;;;11.49;100.00;96795.81;5089343;28;20199;-68
2023/09/27 05:55:43;;;;;;;3.63;2.57;;;;;;;11.73;100.00;96798.44;5083705;28;20570;-68
2023/09/27 05:58:11;;;;;;;5.17;2.90;;;;;;;12.21;100.00;96791.94;5084619;28;20215;-68
2023/09/27 06:00:40;;;;;;;4.90;3.10;;;;;;;12.20;100.00;96802.69;5076671;28;20226;-69
2023/09/27 06:03:07;;;;;;;3.13;2.57;;;;;;;12.34;100.00;96805.41;5076468;28;20561;-69
2023/09/27 06:05:33;;;;;;;4.27;2.87;;;;;;;12.34;100.00;96808.03;5076507;28;20364;-69
2023/09/27 06:08:00;;;;;;;6.00;3.17;;;;;;;12.24;100.00;96810.09;5076842;28;20215;-69
2023/09/27 06:10:26;;;;;;;6.60;3.67;;;;;;;11.97;100.00;96819.47;5075725;28;20705;-69
2023/09/27 06:12:53;;;;;;;5.77;3.30;;;;;;;12.01;100.00;96820.78;5076532;28;20650;-69
2023/09/27 06:15:21;;;;;;;6.03;3.10;;;;;;;12.25;100.00;96811.72;5074253;28;20229;-68
2023/09/27 06:17:48;;;;;;;6.20;3.30;;;;;;;12.15;100.00;96820.06;5074748;28;20223;-68
2023/09/27 06:20:20;;;;;;;6.43;3.50;;;;;;;12.25;100.00;96821.47;5074811;28;20231;-69
2023/09/27 06:22:48;;;;;;;7.90;3.80;;;;;;;12.33;100.00;96824.91;5074582;28;20324;-69
2023/09/27 06:25:15;;;;;;;7.97;3.67;;;;;;;12.37;100.00;96831.50;5073958;28;20207;-69
2023/09/27 06:27:41;;;;;;;10.17;4.47;;;;;;;12.36;100.00;96839.59;5076745;28;20196;-68
2023/09/27 06:30:09;;;;;;;8.23;4.67;;;;;;;12.39;100.00;96832.13;5076111;28;20223;-68
2023/09/27 06:32:38;;;;;;;8.47;4.37;;;;;;;12.64;100.00;96828.34;5075638;28;20205;-69
2023/09/27 06:35:12;;;;;;;6.10;3.80;;;;;;;12.63;100.00;96823.25;5075287;28;20200;-69
2023/09/27 06:37:39;;;;;;;9.75;4.55;;;;;;;12.60;100.00;96827.06;5075804;28;20297;-68
2023/09/27 06:40:08;;;;;;;8.53;3.97;;;;;;;12.60;100.00;96840.28;5075529;28;20227;-69
2023/09/27 06:42:35;;;;;;;7.05;3.75;;;;;;;12.59;100.00;96848.38;5075134;28;20226;-70
2023/09/27 06:45:01;;;;;;;12.37;4.87;;;;;;;12.68;100.00;96848.16;5077376;28;20684;-72
2023/09/27 06:47:30;;;;;;;7.73;4.77;;;;;;;12.76;100.00;96842.81;5075423;28;20768;-70
2023/09/27 06:49:58;;;;;;;7.67;4.40;;;;;;;12.93;100.00;96836.44;5076872;28;20272;-70
2023/09/27 06:52:25;;;;;;;10.83;4.47;;;;;;;12.73;100.00;96850.25;5074854;28;20575;-71
2023/09/27 06:54:52;;;;;;;8.67;4.17;;;;;;;12.75;100.00;96846.44;5076818;28;20204;-73
2023/09/27 06:57:19;;;;;;;7.60;4.03;;;;;;;12.91;100.00;96841.91;5074907;28;20224;-70
2023/09/27 06:59:45;;;;;;;7.93;4.07;;;;;;;13.02;100.00;96840.66;5076441;28;20207;-72
2023/09/27 07:02:12;;;;;;;7.83;4.87;;;;;;;13.15;100.00;96832.94;5075223;28;20218;-73
2023/09/27 07:04:42;;;;;;;7.67;4.80;;;;;;;13.20;100.00;96843.81;5078057;28;20200;-69
2023/09/27 07:07:10;;;;;;;8.68;4.50;;;;;;;13.25;100.00;96838.81;5077600;28;20199;-73
2023/09/27 07:09:37;;;;;;;24.97;5.33;;;;;;;13.27;100.00;96839.47;5076048;28;20551;-70
2023/09/27 07:12:04;;;;;;;10.23;5.00;;;;;;;13.38;100.00;96825.78;5078393;28;20224;-73
2023/09/27 07:14:30;;;;;;;9.27;4.53;;;;;;;13.53;100.00;96830.09;5077331;28;20197;-70
2023/09/27 07:16:57;;;;;;;10.77;5.35;;;;;;;13.44;100.00;96833.84;5078003;28;20224;-73
2023/09/27 07:19:23;;;;;;;10.70;4.88;;;;;;;13.71;100.00;96833.22;5076950;28;20230;-68
2023/09/27 07:21:50;;;;;;;9.45;4.68;;;;;;;13.84;100.00;96841.38;5076124;28;20251;-69
2023/09/27 07:24:19;;;;;;;10.37;4.70;;;;;;;14.10;100.00;96838.13;5073401;28;20616;-71
2023/09/27 07:26:46;;;;;;;8.95;4.78;;;;;;;14.00;100.00;96847.31;5074832;28;20391;-68
2023/09/27 07:29:13;;;;;;;10.25;5.22;;;;;;;14.16;100.00;96844.50;5076081;28;20211;-72
2023/09/27 07:31:41;;;;;;;8.43;5.03;;;;;;;14.24;100.00;96844.41;5075212;28;20219;-69
2023/09/27 07:34:07;;;;;;;10.15;4.95;;;;;;;14.32;100.00;96837.19;5075515;28;20207;-73
2023/09/27 07:36:34;;;;;;;10.88;5.72;;;;;;;14.36;100.00;96837.66;5074604;28;20227;-71
2023/09/27 07:39:03;;;;;;;10.43;5.47;;;;;;;14.37;100.00;96831.31;5076857;28;20209;-69
2023/09/27 07:41:32;;;;;;;10.15;5.30;;;;;;;14.52;100.00;96832.91;5076597;28;21037;-69
2023/09/27 07:43:59;;;;;;;11.20;5.50;;;;;;;14.51;100.00;96827.81;5076399;28;20199;-69
2023/09/27 07:46:29;;;;;;;9.85;5.30;;;;;;;14.59;100.00;96828.53;5075085;28;20204;-68
2023/09/27 07:48:56;;;;;;;10.32;4.57;;;;;;;14.67;100.00;96817.78;5080209;28;20204;-71
2023/09/27 07:51:23;;;;;;;10.63;4.88;;;;;;;14.60;100.00;96818.72;5079240;28;20482;-68
2023/09/27 07:53:49;;;;;;;13.27;5.88;;;;;;;14.89;100.00;96814.97;5080053;28;20200;-69
2023/09/27 07:56:19;;;;;;;9.05;4.60;;;;;;;15.02;100.00;96816.91;5080167;28;20476;-69
2023/09/27 07:58:49;;;;;;;9.18;4.72;;;;;;;14.98;100.00;96819.16;5079357;28;20212;-69
2023/09/27 08:01:20;;;;;;;10.95;5.53;;;;;;;15.01;100.00;96813.44;5079512;28;20342;-72
2023/09/27 08:03:47;;;;;;;8.02;4.18;;;;;;;15.10;100.00;96827.44;5078751;28;20207;-71
2023/09/27 08:06:14;;;;;;;12.55;4.75;;;;;;;15.23;100.00;96815.09;5079162;28;20844;-73
2023/09/27 08:08:40;;;;;;;9.25;4.97;;;;;;;15.23;100.00;96812.44;5079225;28;20200;-69
2023/09/27 08:11:07;;;;;;;9.07;4.82;;;;;;;15.47;100.00;96812.03;5080055;28;20230;-69
2023/09/27 08:13:33;;;;;;;8.63;4.57;;;;;;;15.60;100.00;96809.47;5079280;28;20847;-72
2023/09/27 08:16:03;;;;;;;14.27;5.80;;;;;;;15.69;100.00;96810.97;5078584;28;20200;-68
2023/09/27 08:18:30;;;;;;;9.73;5.70;;;;;;;15.68;100.00;96804.00;5079741;28;20350;-71
2023/09/27 08:20:56;;;;;;;13.18;5.57;;;;;;;15.80;100.00;96802.47;5080033;28;20232;-70
2023/09/27 08:23:23;;;;;;;9.70;5.10;;;;;;;15.99;100.00;96805.22;5079403;28;20222;-69
2023/09/27 08:25:50;;;;;;;12.50;6.25;;;;;;;16.22;100.00;96811.88;5078687;28;20248;-69
2023/09/27 08:28:17;;;;;;;9.43;5.47;;;;;;;16.36;100.00;96800.31;5080094;28;20284;-72
2023/09/27 08:30:43;;;;;;;8.43;4.78;;;;;;;16.48;100.00;96809.34;5079509;28;20219;-72
2023/09/27 08:33:11;;;;;;;10.10;5.10;;;;;;;16.79;100.00;96799.84;5081843;28;20336;-73
2023/09/27 08:35:38;;;;;;;8.73;4.50;;;;;;;16.90;100.00;96798.44;5079325;28;20562;-69
2023/09/27 08:38:04;;;;;;;10.40;4.97;;;;;;;17.08;100.00;96793.31;5079532;28;20230;-72
2023/09/27 08:40:31;;;;;;;10.70;4.78;;;;;;;17.19;100.00;96789.03;5081601;28;20220;-69
2023/09/27 08:43:00;;;;;;;9.63;4.78;;;;;;;17.29;100.00;96802.81;5080947;28;20200;-71
2023/09/27 08:45:27;;;;;;;9.70;5.05;;;;;;;17.38;100.00;96790.91;5080355;28;20289;-71
2023/09/27 08:47:54;;;;;;;6.93;4.20;;;;;;;17.58;100.00;96790.91;5082513;28;20196;-69
2023/09/27 08:50:22;;;;;;;9.02;4.53;;;;;;;17.64;100.00;96784.75;5081955;28;20501;-69
2023/09/27 08:52:50;;;;;;;8.60;4.15;;;;;;;17.63;100.00;96789.28;5081756;28;20675;-70
2023/09/27 08:55:18;;;;;;;9.30;4.30;;;;;;;17.86;100.00;96792.31;5082050;28;20214;-73
2023/09/27 08:57:47;;;;;;;13.18;4.80;;;;;;;18.05;100.00;96789.59;5082810;28;20227;-69
2023/09/27 09:00:19;;;;;;;7.63;4.60;;;;;;;18.16;100.00;96794.25;5081200;28;20637;-69
2023/09/27 09:02:52;;;;;;;13.15;4.72;;;;;;;18.19;100.00;96785.03;5081714;28;20322;-73
2023/09/27 09:05:19;;;;;;;9.35;4.05;;;;;;;18.39;100.00;96779.44;5082563;28;20627;-70
2023/09/27 09:07:47;;;;;;;8.50;3.40;;;;;;;18.74;100.00;96779.88;5083407;28;20216;-72
2023/09/27 09:10:14;;;;;;;7.00;3.60;;;;;;;18.77;100.00;96777.59;5083226;28;20219;-70
2023/09/27 09:12:42;;;;;;;9.23;4.10;;;;;;;18.96;100.00;96787.34;5084595;28;20196;-69
2023/09/27 09:15:15;;;;;;;9.18;3.97;;;;;;;19.14;100.00;96776.75;5083195;28;20203;-70
2023/09/27 09:17:48;;;;;;;8.48;3.67;;;;;;;19.25;100.00;96778.75;5083198;28;20226;-69
2023/09/27 09:20:23;;;;;;;12.38;4.18;;;;;;;19.07;100.00;96781.34;5083349;28;20220;-71
2023/09/27 09:22:53;;;;;;;8.50;3.67;;;;;;;19.11;100.00;96783.34;5084776;28;20208;-69
2023/09/27 09:25:21;;;;;;;5.60;3.28;;;;;;;19.07;100.00;96789.38;5084515;28;20381;-72
2023/09/27 09:28:02;;;;;;;9.18;4.40;;;;;;;19.41;100.00;96788.88;5087745;28;20613;-69
2023/09/27 09:30:37;;;;;;;6.50;3.33;;;;;;;19.38;100.00;96789.34;5086259;28;20216;-71
2023/09/27 09:33:10;;;;;;;6.93;4.13;;;;;;;19.53;100.00;96773.78;5086155;28;20207;-70
2023/09/27 09:35:38;;;;;;;10.68;3.50;;;;;;;19.65;100.00;96772.84;5083657;28;20204;-70
2023/09/27 09:38:06;;;;;;;5.68;3.35;;;;;;;19.80;100.00;96770.66;5082346;28;20653;-72
2023/09/27 09:40:34;;;;;;;6.78;3.72;;;;;;;19.85;100.00;96766.25;5082805;28;20227;-69
2023/09/27 09:43:01;;;;;;;7.35;4.00;;;;;;;19.77;100.00;96765.75;5082159;28;20208;-70
2023/09/27 09:45:28;;;;;;;7.90;3.60;;;;;;;19.96;100.00;96756.72;5082344;28;20200;-71
2023/09/27 09:47:57;;;;;;;8.38;3.92;;;;;;;20.15;100.00;96755.69;5079296;28;20199;-70
2023/09/27 09:50:23;;;;;;;7.18;3.42;;;;;;;20.00;100.00;96753.38;5081576;28;20486;-70
2023/09/27 09:52:55;;;;;;;9.50;4.18;;;;;;;20.28;100.00;96749.13;5080756;28;20484;-71
2023/09/27 09:55:25;;;;;;;6.75;3.35;;;;;;;20.52;100.00;96742.84;5080182;28;20208;-70
2023/09/27 09:57:59;;;;;;;7.63;3.75;;;;;;;20.74;100.00;96741.34;5079950;28;20234;-71
2023/09/27 10:00:27;;;;;;;9.68;3.83;;;;;;;20.87;100.00;96735.78;5080883;28;20715;-73
2023/09/27 10:03:00;;;;;;;5.97;3.10;;;;;;;21.11;100.00;96724.91;5079584;28;20203;-72
2023/09/27 10:05:29;;;;;;;5.57;2.72;;;;;;;20.82;100.00;96722.25;5079763;28;20200;-73
2023/09/27 10:07:56;;;;;;;6.28;3.22;;;;;;;21.35;100.00;96733.81;5081022;28;20208;-69
2023/09/27 10:10:24;;;;;;;6.32;2.65;;;;;;;21.59;100.00;96726.41;5079641;28;20220;-70
2023/09/27 10:12:53;;;;;;;6.18;2.88;;;;;;;21.61;100.00;96726.16;5080327;28;20552;-70
2023/09/27 10:15:22;;;;;;;7.50;2.72;;;;;;;21.64;100.00;96725.72;5079131;28;20206;-69
2023/09/27 10:17:49;;;;;;;4.68;2.42;;;;;;;21.60;100.00;96721.84;5078901;28;20231;-71
2023/09/27 10:20:22;;;;;;;2.90;2.30;;;;;;;21.87;100.00;96722.97;5079383;28;20230;-72
2023/09/27 10:22:50;;;;;;;5.20;2.88;;;;;;;21.87;100.00;96714.94;5079513;28;20215;-70
2023/09/27 10:25:35;;;;;;;5.68;3.17;;;;;;;22.12;100.00;96706.38;5080425;28;20204;-70
2023/09/27 10:28:06;;;;;;;4.65;2.50;;;;;;;22.12;100.00;96710.94;5080677;28;20206;-71
2023/09/27 10:31:04;;;;;;;5.22;2.42;;;;;;;22.14;100.00;96709.63;5082059;28;20757;-74
2023/09/27 10:33:31;;;;;;;5.03;2.42;;;;;;;21.97;100.00;96702.56;5078205;28;20207;-69
2023/09/27 10:36:29;;;;;;;5.40;2.72;;;;;;;22.47;100.00;96685.63;5079414;28;20645;-71
2023/09/27 10:39:06;;;;;;;4.65;2.17;;;;;;;22.49;100.00;96682.72;5081977;28;20650;-70
2023/09/27 10:41:49;;;;;;;4.68;2.53;;;;;;;22.49;100.00;96677.34;5079277;28;20310;-70
2023/09/27 10:44:30;;;;;;;2.92;1.95;;;;;;;22.79;100.00;96673.34;5079954;28;20203;-71
2023/09/27 10:46:57;;;;;;;6.75;2.00;;;;;;;22.41;100.00;96667.78;5080127;28;20218;-70
2023/09/27 10:49:25;;;;;;;2.97;2.22;;;;;;;22.46;100.00;96662.50;5078083;28;20200;-71
2023/09/27 10:51:52;;;;;;;3.72;2.20;;;;;;;22.44;100.00;96661.97;5078357;28;20220;-71
2023/09/27 10:54:22;;;;;;;3.83;2.10;;;;;;;22.80;100.00;96653.47;5078445;28;20244;-71
2023/09/27 10:56:53;;;;;;;2.97;1.83;;;;;;;22.91;100.00;96649.88;5080328;28;20215;-69
2023/09/27 10:59:25;;;;;;;3.30;1.90;;;;;;;23.02;100.00;96647.16;5079092;28;20700;-71
2023/09/27 11:01:52;;;;;;;3.47;1.95;;;;;;;23.20;100.00;96643.41;5078583;28;20227;-69
2023/09/27 11:04:21;;;;;;;6.00;2.05;;;;;;;23.16;100.00;96636.91;5079104;28;20203;-69
2023/09/27 11:06:48;;;;;;;2.35;1.58;;;;;;;23.05;100.00;96632.41;5079049;28;20631;-73
2023/09/27 11:09:19;;;;;;;4.55;2.17;;;;;;;22.95;100.00;96632.22;5079718;28;20538;-71
2023/09/27 11:11:46;;;;;;;2.65;1.48;;;;;;;22.77;100.00;96629.75;5079297;28;20223;-71
2023/09/27 11:14:14;;;;;;;4.88;1.92;;;;;;;23.12;100.00;96631.19;5078013;28;20204;-70
2023/09/27 11:16:41;;;;;;;3.22;1.52;;;;;;;22.76;100.00;96618.22;5076830;28;20203;-69
2023/09/27 11:19:07;;;;;;;1.90;1.30;;;;;;;22.99;100.00;96617.28;5079713;28;20228;-69
2023/09/27 11:21:34;;;;;;;2.42;1.35;;;;;;;22.83;100.00;96612.66;5075721;28;20234;-69
2023/09/27 11:24:03;;;;;;;1.80;1.33;;;;;;;22.86;100.00;96609.47;5079102;28;20203;-69
2023/09/27 11:26:31;;;;;;;1.90;1.30;;;;;;;23.24;100.00;96601.53;5076427;28;20207;-69
2023/09/27 11:28:59;;;;;;;3.10;1.73;;;;;;;22.84;100.00;96598.19;5077384;28;20196;-72